Terminal Aerodrome Forecast
Issued by NWS

Home | Current Version | Previous Version | Text Only | Print | Product List | Glossary On
Versions: 1 2 3 4 5 6 7 8 9 10 11 12 13 14 15 16 17 18 19 20 21
000
FTUS45 KREV 292300
TAFTVL
TAF
KTVL 292329Z 3000/3024 20010KT P6SM -TSRA SCT060 BKN100CB
     FM300100 VRB03KT P6SM SCT120 SCT180
     FM301700 03007KT P6SM SCT070 BKN120
     FM302000 VRB05KT P6SM VCTS SCT060 BKN100CB=

USA.gov is the U.S. government's official web portal to all federal, state and local government web resources and services.